createdAt,value
2019-05-21T02:25:27.371Z,95553.66
2019-05-21T02:27:57.622Z,95563.06
2019-05-21T02:30:30.166Z,95564.80
2019-05-21T02:33:01.766Z,95568.26
2019-05-21T02:35:43.766Z,95575.00
2019-05-21T02:38:05.634Z,95577.55
2019-05-21T02:40:35.838Z,95576.70
2019-05-21T02:43:06.061Z,95588.61
2019-05-21T02:45:37.328Z,95583.98
2019-05-21T02:48:07.469Z,95590.41
2019-05-21T02:50:37.778Z,95590.41
2019-05-21T02:53:07.933Z,95597.16
2019-05-21T02:55:39.194Z,95602.70
2019-05-21T02:58:09.448Z,95592.98
2019-05-21T03:01:04.692Z,95584.93
2019-05-21T03:03:35.637Z,95609.13
2019-05-21T03:06:13.949Z,95606.55
2019-05-21T03:08:39.362Z,95604.04
2019-05-21T03:11:10.469Z,95605.70
2019-05-21T03:13:41.416Z,95610.82
2019-05-21T03:16:11.650Z,95610.00
2019-05-21T03:18:41.848Z,95609.22
2019-05-21T03:21:12.800Z,95614.73
2019-05-21T03:23:43.114Z,95607.59
2019-05-21T03:26:13.305Z,95615.25
2019-05-21T03:28:44.263Z,95624.61
2019-05-21T03:31:14.530Z,95622.92
2019-05-21T03:33:44.691Z,95633.09
2019-05-21T03:36:31.511Z,95626.34
2019-05-21T03:38:46.791Z,95610.27
2019-05-21T03:41:17.967Z,95617.89
2019-05-21T03:43:48.176Z,95623.80
2019-05-21T03:46:18.375Z,95623.38
2019-05-21T03:48:52.455Z,95626.37
2019-05-21T03:51:23.419Z,95628.95
2019-05-21T03:53:55.817Z,95615.42
2019-05-21T03:56:25.948Z,95631.55
2019-05-21T03:58:56.201Z,95629.04
2019-05-21T04:01:26.404Z,95636.67
2019-05-21T04:04:00.174Z,95640.06
2019-05-21T04:06:30.607Z,95650.23
2019-05-21T04:09:00.844Z,95654.53
2019-05-21T04:11:32.041Z,95657.88
2019-05-21T04:14:02.259Z,95655.34
2019-05-21T04:16:43.714Z,95662.18
2019-05-21T04:19:17.608Z,95668.96
2019-05-21T04:21:50.997Z,95664.70
2019-05-21T04:24:21.267Z,95668.08
2019-05-21T04:26:51.570Z,95665.51
2019-05-21T04:29:21.785Z,95673.11
2019-05-21T04:31:52.929Z,95673.59
2019-05-21T04:34:25.772Z,95678.67
2019-05-21T04:37:10.132Z,95681.61
2019-05-21T04:39:27.911Z,95691.78
2019-05-21T04:41:58.084Z,95701.08
2019-05-21T04:44:29.061Z,95696.41
2019-05-21T04:46:59.223Z,95690.91
2019-05-21T04:49:29.676Z,95690.00
2019-05-21T04:52:04.406Z,95689.18
2019-05-21T04:54:35.024Z,95684.97
2019-05-21T04:57:05.210Z,95682.82
2019-05-21T04:59:37.008Z,95679.10
2019-05-21T05:02:07.213Z,95690.06
2019-05-21T05:04:37.430Z,95695.14
2019-05-21T05:07:09.270Z,95693.45
2019-05-21T05:09:39.512Z,95688.36
2019-05-21T05:12:09.788Z,95688.36
2019-05-21T05:14:39.963Z,95696.05
2019-05-21T05:17:10.322Z,95696.47
2019-05-21T05:19:40.607Z,95695.29
2019-05-21T05:22:11.680Z,95693.59
2019-05-21T05:24:42.066Z,95697.44
2019-05-21T05:27:13.991Z,95702.91
2019-05-21T05:29:44.308Z,95697.01
2019-05-21T05:32:14.571Z,95701.64
2019-05-21T05:34:44.941Z,95705.45
2019-05-21T05:37:15.115Z,95709.33
2019-05-21T05:39:46.166Z,95701.25
2019-05-21T05:42:18.828Z,95712.66
2019-05-21T05:44:49.182Z,95710.93
2019-05-21T05:47:19.409Z,95714.75
2019-05-21T05:49:52.238Z,95710.48
2019-05-21T05:52:22.503Z,95715.56
2019-05-21T05:54:52.722Z,95721.92
2019-05-21T05:57:23.700Z,95721.44
2019-05-21T05:59:53.967Z,95725.22
2019-05-21T06:02:24.210Z,95735.81
2019-05-21T06:04:55.287Z,95737.48
2019-05-21T06:07:26.520Z,95744.72
2019-05-21T06:09:57.368Z,95743.00
2019-05-21T06:12:27.662Z,95753.98
2019-05-21T06:14:57.885Z,95761.55
2019-05-21T06:17:28.099Z,95758.56
2019-05-21T06:19:59.184Z,95763.59
2019-05-21T06:22:29.433Z,95760.20
2019-05-21T06:25:00.439Z,95770.37
2019-05-21T06:27:30.712Z,95777.06
2019-05-21T06:30:01.014Z,95776.64
2019-05-21T06:32:31.262Z,95780.55
2019-05-21T06:35:01.620Z,95777.18
2019-05-21T06:37:31.890Z,95784.70
2019-05-21T06:40:02.167Z,95787.61
2019-05-21T06:42:32.418Z,95786.77
2019-05-21T06:45:03.313Z,95794.70
2019-05-21T06:47:33.622Z,95797.27
2019-05-21T06:50:04.966Z,95799.73
2019-05-21T06:52:35.140Z,95795.77
2019-05-21T06:55:06.952Z,95801.16
2019-05-21T06:57:37.902Z,95812.91
2019-05-21T07:00:08.273Z,95809.47
2019-05-21T07:02:38.557Z,95815.91
2019-05-21T07:05:08.927Z,95818.09
2019-05-21T07:07:39.366Z,95822.30
2019-05-21T07:10:09.582Z,95821.52
2019-05-21T07:12:39.757Z,95829.06
2019-05-21T07:15:10.025Z,95825.70
2019-05-21T07:17:40.220Z,95829.97
2019-05-21T07:20:10.720Z,95832.09
2019-05-21T07:22:40.938Z,95840.60
2019-05-21T07:25:11.297Z,95842.27
2019-05-21T07:27:42.384Z,95839.64
2019-05-21T07:30:12.783Z,95861.58
2019-05-21T07:32:43.278Z,95848.06
2019-05-21T07:35:14.220Z,95855.21
2019-05-21T07:37:44.536Z,95851.00
2019-05-21T07:40:15.894Z,95865.84
